sensor_id;sensor_type;location;lat;lon;timestamp;temperature;humidity
6822;DHT22;3449;48.728;8.968;2023-05-07T00:00:41;12.90;99.90
6822;DHT22;3449;48.728;8.968;2023-05-07T00:03:08;12.80;99.90
6822;DHT22;3449;48.728;8.968;2023-05-07T00:05:36;12.80;99.90
6822;DHT22;3449;48.728;8.968;2023-05-07T00:08:04;12.70;99.90
6822;DHT22;3449;48.728;8.968;2023-05-07T00:10:31;12.70;99.90
6822;DHT22;3449;48.728;8.968;2023-05-07T00:12:58;12.60;99.90
6822;DHT22;3449;48.728;8.968;2023-05-07T00:15:26;12.60;99.90
6822;DHT22;3449;48.728;8.968;2023-05-07T00:17:54;12.60;99.90
6822;DHT22;3449;48.728;8.968;2023-05-07T00:20:22;12.60;99.90
6822;DHT22;3449;48.728;8.968;2023-05-07T00:22:49;12.60;99.90
6822;DHT22;3449;48.728;8.968;2023-05-07T00:25:16;12.60;99.90
6822;DHT22;3449;48.728;8.968;2023-05-07T00:27:45;12.60;99.90
6822;DHT22;3449;48.728;8.968;2023-05-07T00:30:12;12.50;99.90
6822;DHT22;3449;48.728;8.968;2023-05-07T00:32:39;12.50;99.90
6822;DHT22;3449;48.728;8.968;2023-05-07T00:35:08;12.50;99.90
6822;DHT22;3449;48.728;8.968;2023-05-07T00:37:35;12.50;99.90
6822;DHT22;3449;48.728;8.968;2023-05-07T00:40:02;12.50;99.90
6822;DHT22;3449;48.728;8.968;2023-05-07T00:42:32;12.50;99.90
6822;DHT22;3449;48.728;8.968;2023-05-07T00:44:59;12.50;99.90
6822;DHT22;3449;48.728;8.968;2023-05-07T00:47:26;12.50;99.90
6822;DHT22;3449;48.728;8.968;2023-05-07T00:49:53;12.40;99.90
6822;DHT22;3449;48.728;8.968;2023-05-07T00:52:24;12.40;99.90
6822;DHT22;3449;48.728;8.968;2023-05-07T00:54:52;12.40;99.90
6822;DHT22;3449;48.728;8.968;2023-05-07T00:57:19;12.40;99.90
6822;DHT22;3449;48.728;8.968;2023-05-07T00:59:47;12.40;99.90
6822;DHT22;3449;48.728;8.968;2023-05-07T01:02:15;12.40;99.90
6822;DHT22;3449;48.728;8.968;2023-05-07T01:04:41;12.40;99.90
6822;DHT22;3449;48.728;8.968;2023-05-07T01:07:08;12.30;99.90
6822;DHT22;3449;48.728;8.968;2023-05-07T01:09:37;12.30;99.90
6822;DHT22;3449;48.728;8.968;2023-05-07T01:12:04;12.30;99.90
6822;DHT22;3449;48.728;8.968;2023-05-07T01:14:31;12.30;99.90
6822;DHT22;3449;48.728;8.968;2023-05-07T01:16:59;12.30;99.90
6822;DHT22;3449;48.728;8.968;2023-05-07T01:19:26;12.20;99.90
6822;DHT22;3449;48.728;8.968;2023-05-07T01:22:01;12.20;99.90
6822;DHT22;3449;48.728;8.968;2023-05-07T01:24:31;12.10;99.90
6822;DHT22;3449;48.728;8.968;2023-05-07T01:26:58;12.10;99.90
6822;DHT22;3449;48.728;8.968;2023-05-07T01:29:27;12.10;99.90
6822;DHT22;3449;48.728;8.968;2023-05-07T01:31:55;12.20;99.90
6822;DHT22;3449;48.728;8.968;2023-05-07T01:34:24;12.10;99.90
6822;DHT22;3449;48.728;8.968;2023-05-07T01:36:52;12.10;99.90
6822;DHT22;3449;48.728;8.968;2023-05-07T01:39:20;12.10;99.90
6822;DHT22;3449;48.728;8.968;2023-05-07T01:41:50;12.10;99.90
6822;DHT22;3449;48.728;8.968;2023-05-07T01:44:18;12.10;99.90
6822;DHT22;3449;48.728;8.968;2023-05-07T01:46:45;12.10;99.90
6822;DHT22;3449;48.728;8.968;2023-05-07T01:49:12;12.10;99.90
6822;DHT22;3449;48.728;8.968;2023-05-07T01:51:40;12.10;99.90
6822;DHT22;3449;48.728;8.968;2023-05-07T01:54:07;12.10;99.90
6822;DHT22;3449;48.728;8.968;2023-05-07T01:56:34;12.10;99.90
6822;DHT22;3449;48.728;8.968;2023-05-07T01:59:02;12.10;99.90
6822;DHT22;3449;48.728;8.968;2023-05-07T02:01:29;12.10;99.90
6822;DHT22;3449;48.728;8.968;2023-05-07T02:03:56;12.10;99.90
6822;DHT22;3449;48.728;8.968;2023-05-07T02:06:23;12.10;99.90
6822;DHT22;3449;48.728;8.968;2023-05-07T02:08:49;12.10;99.90
6822;DHT22;3449;48.728;8.968;2023-05-07T02:11:16;12.00;99.90
6822;DHT22;3449;48.728;8.968;2023-05-07T02:13:43;12.00;99.90
6822;DHT22;3449;48.728;8.968;2023-05-07T02:16:11;12.00;99.90
6822;DHT22;3449;48.728;8.968;2023-05-07T02:18:39;11.90;99.90
6822;DHT22;3449;48.728;8.968;2023-05-07T02:21:06;11.90;99.90
6822;DHT22;3449;48.728;8.968;2023-05-07T02:23:33;11.90;99.90
6822;DHT22;3449;48.728;8.968;2023-05-07T02:26:00;11.80;99.90
6822;DHT22;3449;48.728;8.968;2023-05-07T02:28:27;11.80;99.90
6822;DHT22;3449;48.728;8.968;2023-05-07T02:30:53;11.80;99.90
6822;DHT22;3449;48.728;8.968;2023-05-07T02:33:22;11.70;99.90
6822;DHT22;3449;48.728;8.968;2023-05-07T02:35:49;11.70;99.90
6822;DHT22;3449;48.728;8.968;2023-05-07T02:38:17;11.70;99.90
6822;DHT22;3449;48.728;8.968;2023-05-07T02:40:44;11.60;99.90
6822;DHT22;3449;48.728;8.968;2023-05-07T02:43:11;11.60;99.90
6822;DHT22;3449;48.728;8.968;2023-05-07T02:45:38;11.60;99.90
6822;DHT22;3449;48.728;8.968;2023-05-07T02:48:05;11.60;99.90
6822;DHT22;3449;48.728;8.968;2023-05-07T02:50:33;11.60;99.90
6822;DHT22;3449;48.728;8.968;2023-05-07T02:53:00;11.60;99.90
6822;DHT22;3449;48.728;8.968;2023-05-07T02:55:27;11.50;99.90
6822;DHT22;3449;48.728;8.968;2023-05-07T02:57:53;11.50;99.90
6822;DHT22;3449;48.728;8.968;2023-05-07T03:00:21;11.50;99.90
6822;DHT22;3449;48.728;8.968;2023-05-07T03:02:48;11.50;99.90
6822;DHT22;3449;48.728;8.968;2023-05-07T03:05:15;11.50;99.90
6822;DHT22;3449;48.728;8.968;2023-05-07T03:07:43;11.50;99.90
6822;DHT22;3449;48.728;8.968;2023-05-07T03:10:11;11.50;99.90
6822;DHT22;3449;48.728;8.968;2023-05-07T03:12:38;11.40;99.90
6822;DHT22;3449;48.728;8.968;2023-05-07T03:15:06;11.40;99.90
6822;DHT22;3449;48.728;8.968;2023-05-07T03:17:33;11.40;99.90
6822;DHT22;3449;48.728;8.968;2023-05-07T03:20:00;11.30;99.90
6822;DHT22;3449;48.728;8.968;2023-05-07T03:22:27;11.20;99.90
6822;DHT22;3449;48.728;8.968;2023-05-07T03:24:55;11.20;99.90
6822;DHT22;3449;48.728;8.968;2023-05-07T03:27:22;11.10;99.90
6822;DHT22;3449;48.728;8.968;2023-05-07T03:29:49;11.10;99.90
6822;DHT22;3449;48.728;8.968;2023-05-07T03:32:16;11.10;99.90
6822;DHT22;3449;48.728;8.968;2023-05-07T03:34:42;11.10;99.90
6822;DHT22;3449;48.728;8.968;2023-05-07T03:37:09;11.00;99.90
6822;DHT22;3449;48.728;8.968;2023-05-07T03:39:36;11.00;99.90
6822;DHT22;3449;48.728;8.968;2023-05-07T03:42:04;11.00;99.90
6822;DHT22;3449;48.728;8.968;2023-05-07T03:44:31;11.00;99.90
6822;DHT22;3449;48.728;8.968;2023-05-07T03:46:58;11.00;99.90
6822;DHT22;3449;48.728;8.968;2023-05-07T03:49:25;11.00;99.90
6822;DHT22;3449;48.728;8.968;2023-05-07T03:51:52;11.00;99.90
6822;DHT22;3449;48.728;8.968;2023-05-07T03:54:19;11.00;99.90
6822;DHT22;3449;48.728;8.968;2023-05-07T03:56:46;11.00;99.90
6822;DHT22;3449;48.728;8.968;2023-05-07T03:59:14;11.00;99.90
6822;DHT22;3449;48.728;8.968;2023-05-07T04:01:41;11.00;99.90
6822;DHT22;3449;48.728;8.968;2023-05-07T04:04:08;11.00;99.90
6822;DHT22;3449;48.728;8.968;2023-05-07T04:06:34;10.90;99.90
6822;DHT22;3449;48.728;8.968;2023-05-07T04:09:01;10.90;99.90
6822;DHT22;3449;48.728;8.968;2023-05-07T04:11:28;10.90;99.90
6822;DHT22;3449;48.728;8.968;2023-05-07T04:13:55;10.90;99.90
6822;DHT22;3449;48.728;8.968;2023-05-07T04:16:24;10.80;99.90
6822;DHT22;3449;48.728;8.968;2023-05-07T04:18:50;10.80;99.90
6822;DHT22;3449;48.728;8.968;2023-05-07T04:21:19;10.80;99.90
6822;DHT22;3449;48.728;8.968;2023-05-07T04:23:46;10.70;99.90
6822;DHT22;3449;48.728;8.968;2023-05-07T04:26:13;10.70;99.90
6822;DHT22;3449;48.728;8.968;2023-05-07T04:28:40;10.70;99.90
6822;DHT22;3449;48.728;8.968;2023-05-07T04:31:07;10.70;99.90
6822;DHT22;3449;48.728;8.968;2023-05-07T04:33:35;10.60;99.90
6822;DHT22;3449;48.728;8.968;2023-05-07T04:36:03;10.60;99.90
6822;DHT22;3449;48.728;8.968;2023-05-07T04:38:30;10.60;99.90
6822;DHT22;3449;48.728;8.968;2023-05-07T04:40:58;10.70;99.90
6822;DHT22;3449;48.728;8.968;2023-05-07T04:43:29;10.70;99.90
6822;DHT22;3449;48.728;8.968;2023-05-07T04:45:55;10.70;99.90
6822;DHT22;3449;48.728;8.968;2023-05-07T04:48:22;10.80;99.90
6822;DHT22;3449;48.728;8.968;2023-05-07T04:50:51;10.80;99.90
6822;DHT22;3449;48.728;8.968;2023-05-07T04:53:18;10.80;99.90
6822;DHT22;3449;48.728;8.968;2023-05-07T04:55:45;10.80;99.90
6822;DHT22;3449;48.728;8.968;2023-05-07T04:58:12;10.80;99.90
6822;DHT22;3449;48.728;8.968;2023-05-07T05:00:39;10.90;99.90
6822;DHT22;3449;48.728;8.968;2023-05-07T05:03:06;10.90;99.90
6822;DHT22;3449;48.728;8.968;2023-05-07T05:05:33;10.90;99.90
6822;DHT22;3449;48.728;8.968;2023-05-07T05:08:01;11.00;99.90
6822;DHT22;3449;48.728;8.968;2023-05-07T05:10:28;11.00;99.90
6822;DHT22;3449;48.728;8.968;2023-05-07T05:12:55;11.10;99.90
6822;DHT22;3449;48.728;8.968;2023-05-07T05:15:22;11.20;99.90
6822;DHT22;3449;48.728;8.968;2023-05-07T05:17:49;11.40;99.90
6822;DHT22;3449;48.728;8.968;2023-05-07T05:20:16;11.50;99.90
6822;DHT22;3449;48.728;8.968;2023-05-07T05:22:43;11.60;99.90
6822;DHT22;3449;48.728;8.968;2023-05-07T05:25:11;11.70;99.90
6822;DHT22;3449;48.728;8.968;2023-05-07T05:27:38;11.80;99.90
6822;DHT22;3449;48.728;8.968;2023-05-07T05:30:06;11.90;99.90
6822;DHT22;3449;48.728;8.968;2023-05-07T05:32:33;12.00;99.90
6822;DHT22;3449;48.728;8.968;2023-05-07T05:35:00;12.10;99.90
6822;DHT22;3449;48.728;8.968;2023-05-07T05:37:27;12.30;99.90
6822;DHT22;3449;48.728;8.968;2023-05-07T05:39:55;12.40;99.90
6822;DHT22;3449;48.728;8.968;2023-05-07T05:42:23;12.50;99.90
6822;DHT22;3449;48.728;8.968;2023-05-07T05:44:50;12.60;99.90
6822;DHT22;3449;48.728;8.968;2023-05-07T05:47:17;12.70;99.90
6822;DHT22;3449;48.728;8.968;2023-05-07T05:49:44;12.70;99.90
6822;DHT22;3449;48.728;8.968;2023-05-07T05:52:12;12.80;99.90
6822;DHT22;3449;48.728;8.968;2023-05-07T05:54:39;13.00;99.90
6822;DHT22;3449;48.728;8.968;2023-05-07T05:57:06;13.10;99.90
6822;DHT22;3449;48.728;8.968;2023-05-07T05:59:35;13.20;99.90
6822;DHT22;3449;48.728;8.968;2023-05-07T06:02:02;13.40;99.90
6822;DHT22;3449;48.728;8.968;2023-05-07T06:04:29;13.60;99.90
6822;DHT22;3449;48.728;8.968;2023-05-07T06:06:56;13.80;99.90
6822;DHT22;3449;48.728;8.968;2023-05-07T06:09:23;14.00;99.90
6822;DHT22;3449;48.728;8.968;2023-05-07T06:11:50;14.20;99.90
6822;DHT22;3449;48.728;8.968;2023-05-07T06:14:17;14.30;99.90
6822;DHT22;3449;48.728;8.968;2023-05-07T06:16:45;14.40;99.90
6822;DHT22;3449;48.728;8.968;2023-05-07T06:19:12;14.60;99.90
6822;DHT22;3449;48.728;8.968;2023-05-07T06:21:39;14.60;99.90
6822;DHT22;3449;48.728;8.968;2023-05-07T06:24:07;14.70;99.90
6822;DHT22;3449;48.728;8.968;2023-05-07T06:26:33;14.70;99.90
6822;DHT22;3449;48.728;8.968;2023-05-07T06:29:00;14.60;99.90
6822;DHT22;3449;48.728;8.968;2023-05-07T06:31:30;14.50;99.90
6822;DHT22;3449;48.728;8.968;2023-05-07T06:33:59;14.50;99.90
6822;DHT22;3449;48.728;8.968;2023-05-07T06:36:27;14.60;99.90
6822;DHT22;3449;48.728;8.968;2023-05-07T06:38:55;14.80;99.90
6822;DHT22;3449;48.728;8.968;2023-05-07T06:41:21;15.00;99.90
6822;DHT22;3449;48.728;8.968;2023-05-07T06:43:48;15.30;99.90
6822;DHT22;3449;48.728;8.968;2023-05-07T06:46:15;15.50;99.90
6822;DHT22;3449;48.728;8.968;2023-05-07T06:48:42;15.80;99.90
6822;DHT22;3449;48.728;8.968;2023-05-07T06:51:10;16.00;99.90
6822;DHT22;3449;48.728;8.968;2023-05-07T06:53:37;16.40;99.90
6822;DHT22;3449;48.728;8.968;2023-05-07T06:56:05;16.70;99.90
6822;DHT22;3449;48.728;8.968;2023-05-07T06:58:32;16.80;99.90
6822;DHT22;3449;48.728;8.968;2023-05-07T07:00:58;17.00;99.90
6822;DHT22;3449;48.728;8.968;2023-05-07T07:03:25;17.20;99.90
6822;DHT22;3449;48.728;8.968;2023-05-07T07:05:52;17.50;99.90
6822;DHT22;3449;48.728;8.968;2023-05-07T07:08:22;17.60;99.90
6822;DHT22;3449;48.728;8.968;2023-05-07T07:10:49;17.80;99.90
6822;DHT22;3449;48.728;8.968;2023-05-07T07:13:16;18.10;99.90
6822;DHT22;3449;48.728;8.968;2023-05-07T07:15:43;18.40;99.90
6822;DHT22;3449;48.728;8.968;2023-05-07T07:18:11;18.60;99.90
6822;DHT22;3449;48.728;8.968;2023-05-07T07:20:38;18.80;99.90
6822;DHT22;3449;48.728;8.968;2023-05-07T07:23:05;19.10;99.90
6822;DHT22;3449;48.728;8.968;2023-05-07T07:25:33;19.30;99.90
6822;DHT22;3449;48.728;8.968;2023-05-07T07:28:00;19.20;99.90
6822;DHT22;3449;48.728;8.968;2023-05-07T07:30:27;19.10;99.90
6822;DHT22;3449;48.728;8.968;2023-05-07T07:32:54;19.10;99.90
6822;DHT22;3449;48.728;8.968;2023-05-07T07:35:25;19.10;99.90
6822;DHT22;3449;48.728;8.968;2023-05-07T07:37:52;19.30;99.90
6822;DHT22;3449;48.728;8.968;2023-05-07T07:40:19;19.40;99.90
6822;DHT22;3449;48.728;8.968;2023-05-07T07:42:48;19.40;99.90
6822;DHT22;3449;48.728;8.968;2023-05-07T07:45:14;19.40;99.90
6822;DHT22;3449;48.728;8.968;2023-05-07T07:47:41;19.20;99.90
6822;DHT22;3449;48.728;8.968;2023-05-07T07:50:09;19.20;99.90
6822;DHT22;3449;48.728;8.968;2023-05-07T07:52:36;19.30;99.90
6822;DHT22;3449;48.728;8.968;2023-05-07T07:55:04;19.20;99.90
6822;DHT22;3449;48.728;8.968;2023-05-07T07:57:31;19.30;99.90
6822;DHT22;3449;48.728;8.968;2023-05-07T07:59:59;19.40;99.90
6822;DHT22;3449;48.728;8.968;2023-05-07T08:02:26;19.60;99.90
6822;DHT22;3449;48.728;8.968;2023-05-07T08:04:53;19.80;99.90
6822;DHT22;3449;48.728;8.968;2023-05-07T08:07:20;20.20;99.90
6822;DHT22;3449;48.728;8.968;2023-05-07T08:09:48;20.50;99.90
6822;DHT22;3449;48.728;8.968;2023-05-07T08:12:15;20.90;99.90
6822;DHT22;3449;48.728;8.968;2023-05-07T08:14:42;21.00;99.90
6822;DHT22;3449;48.728;8.968;2023-05-07T08:17:10;21.10;99.90
6822;DHT22;3449;48.728;8.968;2023-05-07T08:19:37;21.20;99.90
6822;DHT22;3449;48.728;8.968;2023-05-07T08:22:04;21.10;99.90
6822;DHT22;3449;48.728;8.968;2023-05-07T08:24:31;21.00;99.90
6822;DHT22;3449;48.728;8.968;2023-05-07T08:26:58;21.10;99.90
6822;DHT22;3449;48.728;8.968;2023-05-07T08:29:24;21.10;99.90
6822;DHT22;3449;48.728;8.968;2023-05-07T08:31:51;21.20;99.90
6822;DHT22;3449;48.728;8.968;2023-05-07T08:34:21;21.40;99.90
6822;DHT22;3449;48.728;8.968;2023-05-07T08:36:48;21.60;99.90
6822;DHT22;3449;48.728;8.968;2023-05-07T08:39:15;21.90;99.90
6822;DHT22;3449;48.728;8.968;2023-05-07T08:41:44;22.00;99.90
6822;DHT22;3449;48.728;8.968;2023-05-07T08:44:12;21.90;99.90
6822;DHT22;3449;48.728;8.968;2023-05-07T08:46:41;22.00;99.90
6822;DHT22;3449;48.728;8.968;2023-05-07T08:49:08;22.40;99.90
6822;DHT22;3449;48.728;8.968;2023-05-07T08:51:37;22.70;99.90
6822;DHT22;3449;48.728;8.968;2023-05-07T08:54:04;23.00;99.90
6822;DHT22;3449;48.728;8.968;2023-05-07T08:56:32;23.20;99.90
6822;DHT22;3449;48.728;8.968;2023-05-07T08:58:59;23.00;99.90
6822;DHT22;3449;48.728;8.968;2023-05-07T09:01:26;23.20;99.90
6822;DHT22;3449;48.728;8.968;2023-05-07T09:03:53;23.40;99.90
6822;DHT22;3449;48.728;8.968;2023-05-07T09:06:20;23.30;99.90
6822;DHT22;3449;48.728;8.968;2023-05-07T09:08:53;23.20;99.90
6822;DHT22;3449;48.728;8.968;2023-05-07T09:11:21;23.10;99.90
6822;DHT22;3449;48.728;8.968;2023-05-07T09:13:49;23.20;99.90
6822;DHT22;3449;48.728;8.968;2023-05-07T09:16:20;23.50;99.90
6822;DHT22;3449;48.728;8.968;2023-05-07T09:18:51;23.70;99.90
6822;DHT22;3449;48.728;8.968;2023-05-07T09:21:19;24.00;99.90
6822;DHT22;3449;48.728;8.968;2023-05-07T09:23:48;24.20;99.90
6822;DHT22;3449;48.728;8.968;2023-05-07T09:26:16;24.20;99.90
6822;DHT22;3449;48.728;8.968;2023-05-07T09:28:43;24.10;99.90
6822;DHT22;3449;48.728;8.968;2023-05-07T09:31:12;24.00;99.90
6822;DHT22;3449;48.728;8.968;2023-05-07T09:33:39;24.00;99.90
6822;DHT22;3449;48.728;8.968;2023-05-07T09:36:07;24.20;99.90
6822;DHT22;3449;48.728;8.968;2023-05-07T09:38:36;24.70;99.90
6822;DHT22;3449;48.728;8.968;2023-05-07T09:41:03;24.60;99.90
6822;DHT22;3449;48.728;8.968;2023-05-07T09:43:33;24.40;99.90
6822;DHT22;3449;48.728;8.968;2023-05-07T09:46:03;24.90;99.90
6822;DHT22;3449;48.728;8.968;2023-05-07T09:48:30;25.00;99.90
6822;DHT22;3449;48.728;8.968;2023-05-07T09:51:02;25.30;99.90
6822;DHT22;3449;48.728;8.968;2023-05-07T09:53:30;25.50;99.90
6822;DHT22;3449;48.728;8.968;2023-05-07T09:55:58;25.50;99.90
6822;DHT22;3449;48.728;8.968;2023-05-07T09:58:26;25.50;99.90
6822;DHT22;3449;48.728;8.968;2023-05-07T10:00:56;25.50;99.90
6822;DHT22;3449;48.728;8.968;2023-05-07T10:03:24;25.40;99.90
6822;DHT22;3449;48.728;8.968;2023-05-07T10:05:54;25.50;99.90
6822;DHT22;3449;48.728;8.968;2023-05-07T10:08:21;25.60;99.90
6822;DHT22;3449;48.728;8.968;2023-05-07T10:10:49;25.80;99.90
6822;DHT22;3449;48.728;8.968;2023-05-07T10:13:17;26.10;99.90
6822;DHT22;3449;48.728;8.968;2023-05-07T10:15:45;26.00;99.90
6822;DHT22;3449;48.728;8.968;2023-05-07T10:18:15;25.80;99.90
6822;DHT22;3449;48.728;8.968;2023-05-07T10:20:43;26.30;99.90
6822;DHT22;3449;48.728;8.968;2023-05-07T10:23:14;26.50;99.90
6822;DHT22;3449;48.728;8.968;2023-05-07T10:25:44;26.10;99.90
6822;DHT22;3449;48.728;8.968;2023-05-07T10:28:12;26.10;99.90
6822;DHT22;3449;48.728;8.968;2023-05-07T10:30:48;26.00;99.90
6822;DHT22;3449;48.728;8.968;2023-05-07T10:33:23;26.40;99.90
6822;DHT22;3449;48.728;8.968;2023-05-07T10:35:51;26.10;99.90
6822;DHT22;3449;48.728;8.968;2023-05-07T10:38:22;26.10;99.90
6822;DHT22;3449;48.728;8.968;2023-05-07T10:40:50;26.10;99.90
6822;DHT22;3449;48.728;8.968;2023-05-07T10:43:17;26.20;99.90
6822;DHT22;3449;48.728;8.968;2023-05-07T10:46:11;26.30;99.90
6822;DHT22;3449;48.728;8.968;2023-05-07T10:49:10;26.70;99.90
6822;DHT22;3449;48.728;8.968;2023-05-07T10:51:38;27.10;99.90
6822;DHT22;3449;48.728;8.968;2023-05-07T10:54:21;27.30;99.90
6822;DHT22;3449;48.728;8.968;2023-05-07T10:56:49;27.20;99.90
6822;DHT22;3449;48.728;8.968;2023-05-07T10:59:33;26.50;99.90
6822;DHT22;3449;48.728;8.968;2023-05-07T11:02:06;26.20;99.90
6822;DHT22;3449;48.728;8.968;2023-05-07T11:04:37;25.70;99.90
6822;DHT22;3449;48.728;8.968;2023-05-07T11:07:25;25.80;99.90
6822;DHT22;3449;48.728;8.968;2023-05-07T11:10:03;25.60;99.90
6822;DHT22;3449;48.728;8.968;2023-05-07T11:12:53;25.20;99.90
6822;DHT22;3449;48.728;8.968;2023-05-07T11:15:47;25.20;99.90
6822;DHT22;3449;48.728;8.968;2023-05-07T11:18:15;25.20;99.90
6822;DHT22;3449;48.728;8.968;2023-05-07T11:20:54;25.00;99.90
6822;DHT22;3449;48.728;8.968;2023-05-07T11:23:56;24.50;99.90
6822;DHT22;3449;48.728;8.968;2023-05-07T11:26:27;23.90;99.90
6822;DHT22;3449;48.728;8.968;2023-05-07T11:28:54;23.60;99.90
6822;DHT22;3449;48.728;8.968;2023-05-07T11:31:23;23.40;99.90
6822;DHT22;3449;48.728;8.968;2023-05-07T11:33:52;23.10;99.90
6822;DHT22;3449;48.728;8.968;2023-05-07T11:36:23;22.90;99.90
6822;DHT22;3449;48.728;8.968;2023-05-07T11:38:50;22.70;99.90
6822;DHT22;3449;48.728;8.968;2023-05-07T11:41:17;22.60;99.90
6822;DHT22;3449;48.728;8.968;2023-05-07T11:43:58;22.40;99.90
6822;DHT22;3449;48.728;8.968;2023-05-07T11:46:27;21.80;99.90
6822;DHT22;3449;48.728;8.968;2023-05-07T11:48:54;21.30;99.90
6822;DHT22;3449;48.728;8.968;2023-05-07T11:51:24;21.10;99.90
6822;DHT22;3449;48.728;8.968;2023-05-07T11:53:53;20.80;99.90
6822;DHT22;3449;48.728;8.968;2023-05-07T11:56:20;20.40;99.90
6822;DHT22;3449;48.728;8.968;2023-05-07T11:58:48;20.20;99.90
6822;DHT22;3449;48.728;8.968;2023-05-07T12:01:16;19.90;99.90
6822;DHT22;3449;48.728;8.968;2023-05-07T12:03:45;19.60;99.90
6822;DHT22;3449;48.728;8.968;2023-05-07T12:06:14;18.60;99.90
6822;DHT22;3449;48.728;8.968;2023-05-07T12:08:43;17.70;99.90
6822;DHT22;3449;48.728;8.968;2023-05-07T12:11:13;17.00;99.90
6822;DHT22;3449;48.728;8.968;2023-05-07T12:13:42;16.90;99.90
6822;DHT22;3449;48.728;8.968;2023-05-07T12:16:09;16.70;99.90
6822;DHT22;3449;48.728;8.968;2023-05-07T12:18:37;16.50;99.90
6822;DHT22;3449;48.728;8.968;2023-05-07T12:21:05;16.20;99.90
6822;DHT22;3449;48.728;8.968;2023-05-07T12:23:34;15.90;99.90
6822;DHT22;3449;48.728;8.968;2023-05-07T12:26:03;15.80;99.90
6822;DHT22;3449;48.728;8.968;2023-05-07T12:28:31;15.50;99.90
6822;DHT22;3449;48.728;8.968;2023-05-07T12:30:58;15.40;99.90
6822;DHT22;3449;48.728;8.968;2023-05-07T12:33:26;15.30;99.90
6822;DHT22;3449;48.728;8.968;2023-05-07T12:35:55;15.10;99.90
6822;DHT22;3449;48.728;8.968;2023-05-07T12:38:22;15.00;99.90
6822;DHT22;3449;48.728;8.968;2023-05-07T12:40:52;15.00;99.90
6822;DHT22;3449;48.728;8.968;2023-05-07T12:43:24;15.10;99.90
6822;DHT22;3449;48.728;8.968;2023-05-07T12:45:53;15.30;99.90
6822;DHT22;3449;48.728;8.968;2023-05-07T12:48:21;15.40;99.90
6822;DHT22;3449;48.728;8.968;2023-05-07T12:50:49;15.50;99.90
6822;DHT22;3449;48.728;8.968;2023-05-07T12:53:17;15.70;99.90
6822;DHT22;3449;48.728;8.968;2023-05-07T12:55:47;15.70;99.90
6822;DHT22;3449;48.728;8.968;2023-05-07T12:58:15;15.60;99.90
6822;DHT22;3449;48.728;8.968;2023-05-07T13:00:45;15.60;99.90
6822;DHT22;3449;48.728;8.968;2023-05-07T13:03:21;15.70;99.90
6822;DHT22;3449;48.728;8.968;2023-05-07T13:05:49;15.80;99.90
6822;DHT22;3449;48.728;8.968;2023-05-07T13:08:24;15.80;99.90
6822;DHT22;3449;48.728;8.968;2023-05-07T13:10:51;15.80;99.90
6822;DHT22;3449;48.728;8.968;2023-05-07T13:13:18;16.00;99.90
6822;DHT22;3449;48.728;8.968;2023-05-07T13:15:47;16.00;99.90
6822;DHT22;3449;48.728;8.968;2023-05-07T13:18:13;16.00;99.90
6822;DHT22;3449;48.728;8.968;2023-05-07T13:20:40;16.00;99.90
6822;DHT22;3449;48.728;8.968;2023-05-07T13:23:07;16.10;99.90
6822;DHT22;3449;48.728;8.968;2023-05-07T13:25:34;16.10;99.90
6822;DHT22;3449;48.728;8.968;2023-05-07T13:28:01;16.00;99.90
6822;DHT22;3449;48.728;8.968;2023-05-07T13:30:29;16.00;99.90
6822;DHT22;3449;48.728;8.968;2023-05-07T13:32:58;16.00;99.90
6822;DHT22;3449;48.728;8.968;2023-05-07T13:35:25;16.00;99.90
6822;DHT22;3449;48.728;8.968;2023-05-07T13:37:52;16.10;99.90
6822;DHT22;3449;48.728;8.968;2023-05-07T13:40:20;16.20;99.90
6822;DHT22;3449;48.728;8.968;2023-05-07T13:42:47;16.20;99.90
6822;DHT22;3449;48.728;8.968;2023-05-07T13:45:14;16.20;99.90
6822;DHT22;3449;48.728;8.968;2023-05-07T13:47:41;16.20;99.90
6822;DHT22;3449;48.728;8.968;2023-05-07T13:50:11;16.10;99.90
6822;DHT22;3449;48.728;8.968;2023-05-07T13:52:40;16.00;99.90
6822;DHT22;3449;48.728;8.968;2023-05-07T13:55:08;15.90;99.90
6822;DHT22;3449;48.728;8.968;2023-05-07T13:57:36;15.90;99.90
6822;DHT22;3449;48.728;8.968;2023-05-07T14:00:04;15.90;99.90
6822;DHT22;3449;48.728;8.968;2023-05-07T14:02:32;15.90;99.90
6822;DHT22;3449;48.728;8.968;2023-05-07T14:04:59;15.80;99.90
6822;DHT22;3449;48.728;8.968;2023-05-07T14:07:27;15.80;99.90
6822;DHT22;3449;48.728;8.968;2023-05-07T14:09:54;15.80;99.90
6822;DHT22;3449;48.728;8.968;2023-05-07T14:12:22;15.70;99.90
6822;DHT22;3449;48.728;8.968;2023-05-07T14:14:51;15.60;99.90
6822;DHT22;3449;48.728;8.968;2023-05-07T14:17:22;15.60;99.90
6822;DHT22;3449;48.728;8.968;2023-05-07T14:19:52;15.60;99.90
6822;DHT22;3449;48.728;8.968;2023-05-07T14:22:20;15.50;99.90
6822;DHT22;3449;48.728;8.968;2023-05-07T14:24:49;15.50;99.90
6822;DHT22;3449;48.728;8.968;2023-05-07T14:27:16;15.40;99.90
6822;DHT22;3449;48.728;8.968;2023-05-07T14:29:43;15.40;99.90
6822;DHT22;3449;48.728;8.968;2023-05-07T14:32:11;15.40;99.90
6822;DHT22;3449;48.728;8.968;2023-05-07T14:34:38;15.40;99.90
6822;DHT22;3449;48.728;8.968;2023-05-07T14:37:05;15.40;99.90
6822;DHT22;3449;48.728;8.968;2023-05-07T14:39:32;15.40;99.90
6822;DHT22;3449;48.728;8.968;2023-05-07T14:42:00;15.50;99.90
6822;DHT22;3449;48.728;8.968;2023-05-07T14:44:27;15.50;99.90
6822;DHT22;3449;48.728;8.968;2023-05-07T14:46:54;15.50;99.90
6822;DHT22;3449;48.728;8.968;2023-05-07T14:49:21;15.50;99.90
6822;DHT22;3449;48.728;8.968;2023-05-07T14:51:49;15.50;99.90
6822;DHT22;3449;48.728;8.968;2023-05-07T14:54:16;15.40;99.90
6822;DHT22;3449;48.728;8.968;2023-05-07T14:56:43;15.50;99.90
6822;DHT22;3449;48.728;8.968;2023-05-07T14:59:11;15.50;99.90
6822;DHT22;3449;48.728;8.968;2023-05-07T15:01:38;15.50;99.90
6822;DHT22;3449;48.728;8.968;2023-05-07T15:04:10;15.60;99.90
6822;DHT22;3449;48.728;8.968;2023-05-07T15:06:37;15.60;99.90
6822;DHT22;3449;48.728;8.968;2023-05-07T15:09:04;15.70;99.90
6822;DHT22;3449;48.728;8.968;2023-05-07T15:11:31;15.80;99.90
6822;DHT22;3449;48.728;8.968;2023-05-07T15:13:58;15.80;99.90
6822;DHT22;3449;48.728;8.968;2023-05-07T15:16:27;15.80;99.90
6822;DHT22;3449;48.728;8.968;2023-05-07T15:18:53;15.80;99.90
6822;DHT22;3449;48.728;8.968;2023-05-07T15:21:20;15.80;99.90
6822;DHT22;3449;48.728;8.968;2023-05-07T15:23:48;16.00;99.90
6822;DHT22;3449;48.728;8.968;2023-05-07T15:26:14;16.00;99.90
6822;DHT22;3449;48.728;8.968;2023-05-07T15:28:41;16.00;99.90
6822;DHT22;3449;48.728;8.968;2023-05-07T15:31:08;16.00;99.90
6822;DHT22;3449;48.728;8.968;2023-05-07T15:33:36;16.20;99.90
6822;DHT22;3449;48.728;8.968;2023-05-07T15:36:04;16.30;99.90
6822;DHT22;3449;48.728;8.968;2023-05-07T15:38:31;16.30;99.90
6822;DHT22;3449;48.728;8.968;2023-05-07T15:40:58;16.40;99.90
6822;DHT22;3449;48.728;8.968;2023-05-07T15:43:25;16.40;99.90
6822;DHT22;3449;48.728;8.968;2023-05-07T15:45:52;16.50;99.90
6822;DHT22;3449;48.728;8.968;2023-05-07T15:48:20;16.50;99.90
6822;DHT22;3449;48.728;8.968;2023-05-07T15:50:48;16.60;99.90
6822;DHT22;3449;48.728;8.968;2023-05-07T15:53:15;16.60;99.90
6822;DHT22;3449;48.728;8.968;2023-05-07T15:55:42;16.60;99.90
6822;DHT22;3449;48.728;8.968;2023-05-07T15:58:09;16.70;99.90
6822;DHT22;3449;48.728;8.968;2023-05-07T16:00:37;16.70;99.90
6822;DHT22;3449;48.728;8.968;2023-05-07T16:03:05;16.70;99.90
6822;DHT22;3449;48.728;8.968;2023-05-07T16:05:33;16.80;99.90
6822;DHT22;3449;48.728;8.968;2023-05-07T16:08:01;16.80;99.90